sensor_id;sensor_type;location;lat;lon;timestamp;pressure;altitude;pressure_sealevel;temperature;humidity
62111;BME280;48102;47.526;19.072;2022-12-07T04:35:55;100359.09;;;2.30;100.00
62111;BME280;48102;47.526;19.072;2022-12-07T04:38:59;100360.91;;;2.23;100.00
62111;BME280;48102;47.526;19.072;2022-12-07T04:42:02;100352.25;;;2.22;100.00
62111;BME280;48102;47.526;19.072;2022-12-07T04:45:05;100356.50;;;2.28;100.00
62111;BME280;48102;47.526;19.072;2022-12-07T04:48:08;100367.62;;;2.36;100.00
62111;BME280;48102;47.526;19.072;2022-12-07T04:51:17;100359.03;;;2.34;100.00
62111;BME280;48102;47.526;19.072;2022-12-07T04:54:21;100364.22;;;2.34;100.00
62111;BME280;48102;47.526;19.072;2022-12-07T04:57:23;100369.25;;;2.45;100.00
62111;BME280;48102;47.526;19.072;2022-12-07T05:00:26;100369.16;;;2.49;100.00
62111;BME280;48102;47.526;19.072;2022-12-07T05:03:29;100367.50;;;2.47;100.00
62111;BME280;48102;47.526;19.072;2022-12-07T05:06:31;100371.75;;;2.49;100.00
62111;BME280;48102;47.526;19.072;2022-12-07T05:09:34;100360.53;;;2.47;100.00
62111;BME280;48102;47.526;19.072;2022-12-07T05:12:37;100353.44;;;2.57;100.00
62111;BME280;48102;47.526;19.072;2022-12-07T05:15:40;100347.34;;;2.60;100.00
62111;BME280;48102;47.526;19.072;2022-12-07T05:18:42;100338.59;;;2.64;100.00
62111;BME280;48102;47.526;19.072;2022-12-07T05:21:45;100343.69;;;2.70;100.00
62111;BME280;48102;47.526;19.072;2022-12-07T05:24:48;100340.22;;;2.69;100.00
62111;BME280;48102;47.526;19.072;2022-12-07T05:27:51;100341.00;;;2.74;100.00
62111;BME280;48102;47.526;19.072;2022-12-07T05:30:53;100333.06;;;2.82;100.00
62111;BME280;48102;47.526;19.072;2022-12-07T05:34:01;100338.22;;;2.85;100.00
62111;BME280;48102;47.526;19.072;2022-12-07T05:37:04;100337.41;;;2.82;100.00
62111;BME280;48102;47.526;19.072;2022-12-07T05:40:07;100335.66;;;2.82;100.00
62111;BME280;48102;47.526;19.072;2022-12-07T05:43:10;100335.56;;;2.87;100.00
62111;BME280;48102;47.526;19.072;2022-12-07T05:46:12;100337.31;;;2.86;100.00
62111;BME280;48102;47.526;19.072;2022-12-07T05:49:15;100334.72;;;2.85;100.00
62111;BME280;48102;47.526;19.072;2022-12-07T05:52:18;100334.50;;;2.98;100.00
62111;BME280;48102;47.526;19.072;2022-12-07T05:55:20;100342.31;;;2.97;100.00
62111;BME280;48102;47.526;19.072;2022-12-07T05:58:24;100332.69;;;3.00;100.00
62111;BME280;48102;47.526;19.072;2022-12-07T06:01:45;100337.88;;;3.02;100.00
62111;BME280;48102;47.526;19.072;2022-12-07T06:04:48;100344.78;;;3.05;100.00
62111;BME280;48102;47.526;19.072;2022-12-07T06:07:50;100345.84;;;2.94;100.00
62111;BME280;48102;47.526;19.072;2022-12-07T06:10:53;100345.75;;;2.97;100.00
62111;BME280;48102;47.526;19.072;2022-12-07T06:14:16;100350.97;;;2.99;100.00
62111;BME280;48102;47.526;19.072;2022-12-07T06:17:19;100347.50;;;2.97;100.00
62111;BME280;48102;47.526;19.072;2022-12-07T06:20:21;100353.62;;;2.96;100.00
62111;BME280;48102;47.526;19.072;2022-12-07T06:23:24;100350.09;;;2.98;100.00
62111;BME280;48102;47.526;19.072;2022-12-07T06:26:27;100353.47;;;3.04;100.00
62111;BME280;48102;47.526;19.072;2022-12-07T06:29:30;100356.84;;;3.09;100.00
62111;BME280;48102;47.526;19.072;2022-12-07T06:32:33;100355.94;;;3.11;100.00
62111;BME280;48102;47.526;19.072;2022-12-07T06:35:36;100358.63;;;3.07;100.00
62111;BME280;48102;47.526;19.072;2022-12-07T06:38:39;100356.00;;;3.08;100.00
62111;BME280;48102;47.526;19.072;2022-12-07T06:41:42;100363.88;;;3.04;100.00
62111;BME280;48102;47.526;19.072;2022-12-07T06:44:44;100362.19;;;3.03;100.00
62111;BME280;48102;47.526;19.072;2022-12-07T06:47:47;100365.69;;;3.00;100.00
62111;BME280;48102;47.526;19.072;2022-12-07T06:50:50;100367.38;;;3.03;100.00
62111;BME280;48102;47.526;19.072;2022-12-07T06:53:57;100370.00;;;3.03;100.00
62111;BME280;48102;47.526;19.072;2022-12-07T06:56:59;100370.75;;;3.08;100.00
62111;BME280;48102;47.526;19.072;2022-12-07T07:00:02;100370.53;;;3.18;100.00
62111;BME280;48102;47.526;19.072;2022-12-07T07:03:06;100369.69;;;3.18;100.00
62111;BME280;48102;47.526;19.072;2022-12-07T07:06:09;100368.78;;;3.19;100.00
62111;BME280;48102;47.526;19.072;2022-12-07T07:09:12;100362.53;;;3.27;100.00
62111;BME280;48102;47.526;19.072;2022-12-07T07:12:15;100368.50;;;3.34;100.00
62111;BME280;48102;47.526;19.072;2022-12-07T07:15:19;100368.38;;;3.40;100.00
62111;BME280;48102;47.526;19.072;2022-12-07T07:18:23;100365.66;;;3.45;100.00
62111;BME280;48102;47.526;19.072;2022-12-07T07:21:26;100369.06;;;3.50;100.00
62111;BME280;48102;47.526;19.072;2022-12-07T07:24:29;100363.16;;;3.40;100.00
62111;BME280;48102;47.526;19.072;2022-12-07T07:27:31;100375.31;;;3.41;100.00
62111;BME280;48102;47.526;19.072;2022-12-07T07:30:34;100364.91;;;3.41;100.00
62111;BME280;48102;47.526;19.072;2022-12-07T07:33:37;100375.28;;;3.43;100.00
62111;BME280;48102;47.526;19.072;2022-12-07T07:36:40;100369.13;;;3.47;100.00
62111;BME280;48102;47.526;19.072;2022-12-07T07:39:42;100375.03;;;3.55;100.00
62111;BME280;48102;47.526;19.072;2022-12-07T07:42:50;100367.13;;;3.58;100.00
62111;BME280;48102;47.526;19.072;2022-12-07T07:45:53;100365.22;;;3.68;100.00
62111;BME280;48102;47.526;19.072;2022-12-07T07:48:56;100366.00;;;3.71;100.00
62111;BME280;48102;47.526;19.072;2022-12-07T07:51:58;100360.62;;;3.79;100.00
62111;BME280;48102;47.526;19.072;2022-12-07T07:55:01;100367.41;;;3.86;100.00
62111;BME280;48102;47.526;19.072;2022-12-07T07:58:04;100372.37;;;3.98;100.00
62111;BME280;48102;47.526;19.072;2022-12-07T08:01:07;100374.88;;;4.01;100.00
62111;BME280;48102;47.526;19.072;2022-12-07T08:04:10;100366.91;;;4.09;100.00
62111;BME280;48102;47.526;19.072;2022-12-07T08:07:14;100376.16;;;4.22;100.00
62111;BME280;48102;47.526;19.072;2022-12-07T08:10:17;100378.31;;;4.42;100.00
62111;BME280;48102;47.526;19.072;2022-12-07T08:13:20;100374.50;;;4.56;100.00
62111;BME280;48102;47.526;19.072;2022-12-07T08:16:30;100377.59;;;4.71;100.00
62111;BME280;48102;47.526;19.072;2022-12-07T08:19:33;100377.44;;;4.77;100.00
62111;BME280;48102;47.526;19.072;2022-12-07T08:22:36;100379.84;;;4.85;100.00
62111;BME280;48102;47.526;19.072;2022-12-07T08:25:38;100384.34;;;4.80;100.00
62111;BME280;48102;47.526;19.072;2022-12-07T08:28:42;100393.44;;;4.64;100.00
62111;BME280;48102;47.526;19.072;2022-12-07T08:31:46;100392.72;;;4.57;100.00
62111;BME280;48102;47.526;19.072;2022-12-07T08:34:48;100399.56;;;4.63;100.00
62111;BME280;48102;47.526;19.072;2022-12-07T08:37:52;100394.06;;;4.73;100.00
62111;BME280;48102;47.526;19.072;2022-12-07T08:40:58;100393.69;;;4.89;100.00
62111;BME280;48102;47.526;19.072;2022-12-07T08:44:01;100394.06;;;5.08;100.00
62111;BME280;48102;47.526;19.072;2022-12-07T08:47:05;100392.16;;;5.14;100.00
62111;BME280;48102;47.526;19.072;2022-12-07T08:50:09;100397.94;;;5.25;100.00
62111;BME280;48102;47.526;19.072;2022-12-07T08:53:13;100395.81;;;5.40;100.00
62111;BME280;48102;47.526;19.072;2022-12-07T08:56:16;100401.56;;;5.51;100.00
62111;BME280;48102;47.526;19.072;2022-12-07T08:59:20;100393.59;;;5.57;100.00
62111;BME280;48102;47.526;19.072;2022-12-07T09:02:23;100397.38;;;5.76;100.00
62111;BME280;48102;47.526;19.072;2022-12-07T09:05:25;100399.91;;;5.79;100.00
62111;BME280;48102;47.526;19.072;2022-12-07T09:08:39;100392.91;;;5.80;100.00
62111;BME280;48102;47.526;19.072;2022-12-07T09:11:44;100405.53;;;5.95;100.00
62111;BME280;48102;47.526;19.072;2022-12-07T09:14:47;100403.19;;;5.86;100.00
62111;BME280;48102;47.526;19.072;2022-12-07T09:17:51;100403.69;;;6.00;100.00
62111;BME280;48102;47.526;19.072;2022-12-07T09:20:54;100399.47;;;6.51;100.00
62111;BME280;48102;47.526;19.072;2022-12-07T09:23:58;100388.44;;;6.41;100.00
62111;BME280;48102;47.526;19.072;2022-12-07T09:27:00;100374.56;;;6.11;100.00
62111;BME280;48102;47.526;19.072;2022-12-07T09:30:05;100375.28;;;6.16;100.00
62111;BME280;48102;47.526;19.072;2022-12-07T09:33:08;100370.16;;;6.13;100.00
62111;BME280;48102;47.526;19.072;2022-12-07T09:36:10;100371.94;;;6.11;100.00
62111;BME280;48102;47.526;19.072;2022-12-07T09:39:13;100374.66;;;6.08;100.00
62111;BME280;48102;47.526;19.072;2022-12-07T09:42:32;100376.66;;;6.28;100.00
62111;BME280;48102;47.526;19.072;2022-12-07T09:45:36;100375.91;;;6.51;100.00
62111;BME280;48102;47.526;19.072;2022-12-07T09:48:40;100366.84;;;6.88;100.00
62111;BME280;48102;47.526;19.072;2022-12-07T09:51:45;100366.09;;;7.34;100.00
62111;BME280;48102;47.526;19.072;2022-12-07T09:54:49;100365.78;;;7.42;100.00
62111;BME280;48102;47.526;19.072;2022-12-07T09:57:52;100358.16;;;7.36;100.00
62111;BME280;48102;47.526;19.072;2022-12-07T10:00:59;100363.06;;;7.45;100.00
62111;BME280;48102;47.526;19.072;2022-12-07T10:04:15;100361.38;;;7.42;100.00
62111;BME280;48102;47.526;19.072;2022-12-07T10:07:19;100350.03;;;7.18;100.00
62111;BME280;48102;47.526;19.072;2022-12-07T10:10:29;100352.25;;;7.29;100.00
62111;BME280;48102;47.526;19.072;2022-12-07T10:13:39;100353.88;;;7.33;100.00
62111;BME280;48102;47.526;19.072;2022-12-07T10:16:42;100358.41;;;7.53;100.00
62111;BME280;48102;47.526;19.072;2022-12-07T10:19:45;100348.97;;;7.71;100.00
62111;BME280;48102;47.526;19.072;2022-12-07T10:22:55;100352.81;;;8.08;100.00
62111;BME280;48102;47.526;19.072;2022-12-07T10:25:58;100347.75;;;8.25;100.00
62111;BME280;48102;47.526;19.072;2022-12-07T10:29:14;100350.78;;;8.58;100.00
62111;BME280;48102;47.526;19.072;2022-12-07T10:35:29;100352.19;;;8.67;90.97
62111;BME280;48102;47.526;19.072;2022-12-07T10:38:32;100342.34;;;8.51;91.20
62111;BME280;48102;47.526;19.072;2022-12-07T10:41:35;100336.69;;;8.61;96.95
62111;BME280;48102;47.526;19.072;2022-12-07T10:44:37;100325.06;;;8.66;88.93
62111;BME280;48102;47.526;19.072;2022-12-07T10:54:38;100333.91;;;8.43;87.17
62111;BME280;48102;47.526;19.072;2022-12-07T11:14:37;100319.78;;;8.24;87.57
62111;BME280;48102;47.526;19.072;2022-12-07T11:30:47;100319.53;;;7.64;89.01
62111;BME280;48102;47.526;19.072;2022-12-07T11:33:57;100308.84;;;7.69;87.32
62111;BME280;48102;47.526;19.072;2022-12-07T11:37:03;100312.63;;;7.62;89.92
62111;BME280;48102;47.526;19.072;2022-12-07T11:40:27;100308.91;;;7.89;93.55
62111;BME280;48102;47.526;19.072;2022-12-07T11:43:33;100316.16;;;7.61;88.07
62111;BME280;48102;47.526;19.072;2022-12-07T11:46:58;100311.31;;;7.50;91.21
62111;BME280;48102;47.526;19.072;2022-12-07T11:53:49;100320.09;;;7.25;93.39
62111;BME280;48102;47.526;19.072;2022-12-07T11:56:56;100311.34;;;7.25;94.43
62111;BME280;48102;47.526;19.072;2022-12-07T12:00:06;100323.09;;;7.15;94.95
62111;BME280;48102;47.526;19.072;2022-12-07T12:03:26;100312.84;;;7.09;95.33
62111;BME280;48102;47.526;19.072;2022-12-07T12:06:34;100315.63;;;7.04;95.05
62111;BME280;48102;47.526;19.072;2022-12-07T12:10:17;100303.41;;;7.03;96.49
62111;BME280;48102;47.526;19.072;2022-12-07T12:13:24;100293.75;;;7.05;93.49
62111;BME280;48102;47.526;19.072;2022-12-07T12:17:22;100286.50;;;7.12;90.61
62111;BME280;48102;47.526;19.072;2022-12-07T12:20:54;100284.13;;;7.29;87.18
62111;BME280;48102;47.526;19.072;2022-12-07T12:24:10;100287.87;;;7.69;89.67
62111;BME280;48102;47.526;19.072;2022-12-07T12:27:23;100278.41;;;7.41;91.73
62111;BME280;48102;47.526;19.072;2022-12-07T12:30:33;100265.53;;;7.12;95.54
62111;BME280;48102;47.526;19.072;2022-12-07T12:33:37;100265.84;;;7.04;94.75
62111;BME280;48102;47.526;19.072;2022-12-07T12:40:49;100259.72;;;7.03;95.19
62111;BME280;48102;47.526;19.072;2022-12-07T12:43:50;100251.75;;;7.07;93.02
62111;BME280;48102;47.526;19.072;2022-12-07T12:46:59;100249.81;;;7.12;94.15
62111;BME280;48102;47.526;19.072;2022-12-07T12:50:35;100256.16;;;7.06;92.79
62111;BME280;48102;47.526;19.072;2022-12-07T12:53:38;100256.50;;;7.20;89.79
62111;BME280;48102;47.526;19.072;2022-12-07T13:02:58;100269.84;;;7.60;87.61
62111;BME280;48102;47.526;19.072;2022-12-07T13:06:18;100273.03;;;7.68;85.69
62111;BME280;48102;47.526;19.072;2022-12-07T13:09:33;100267.00;;;7.66;82.00
62111;BME280;48102;47.526;19.072;2022-12-07T13:12:37;100279.34;;;7.40;82.76
62111;BME280;48102;47.526;19.072;2022-12-07T13:15:54;100267.37;;;7.33;86.06
62111;BME280;48102;47.526;19.072;2022-12-07T13:18:57;100270.72;;;7.37;86.25
62111;BME280;48102;47.526;19.072;2022-12-07T13:22:00;100267.94;;;7.41;83.65
62111;BME280;48102;47.526;19.072;2022-12-07T13:25:10;100273.84;;;7.46;82.52
62111;BME280;48102;47.526;19.072;2022-12-07T13:28:17;100281.66;;;7.24;82.29
62111;BME280;48102;47.526;19.072;2022-12-07T13:31:43;100288.94;;;6.93;86.09
62111;BME280;48102;47.526;19.072;2022-12-07T13:34:46;100282.69;;;6.72;87.44
62111;BME280;48102;47.526;19.072;2022-12-07T13:37:50;100280.91;;;6.47;90.87
62111;BME280;48102;47.526;19.072;2022-12-07T13:41:13;100274.97;;;6.42;92.03
62111;BME280;48102;47.526;19.072;2022-12-07T13:44:17;100277.16;;;6.29;92.01
62111;BME280;48102;47.526;19.072;2022-12-07T13:47:44;100284.37;;;6.23;94.11
62111;BME280;48102;47.526;19.072;2022-12-07T13:50:55;100289.47;;;5.99;97.61
62111;BME280;48102;47.526;19.072;2022-12-07T13:54:06;100294.19;;;5.87;98.94
62111;BME280;48102;47.526;19.072;2022-12-07T13:57:11;100292.34;;;5.90;99.61
62111;BME280;48102;47.526;19.072;2022-12-07T14:00:26;100298.16;;;6.00;100.00
62111;BME280;48102;47.526;19.072;2022-12-07T14:03:32;100291.69;;;6.12;100.00
62111;BME280;48102;47.526;19.072;2022-12-07T14:06:35;100297.78;;;6.12;98.27
62111;BME280;48102;47.526;19.072;2022-12-07T14:09:38;100298.84;;;6.07;99.03
62111;BME280;48102;47.526;19.072;2022-12-07T14:12:42;100291.37;;;5.94;99.97
62111;BME280;48102;47.526;19.072;2022-12-07T14:15:49;100284.22;;;5.71;100.00
62111;BME280;48102;47.526;19.072;2022-12-07T14:18:53;100286.31;;;5.60;100.00
62111;BME280;48102;47.526;19.072;2022-12-07T14:22:19;100290.88;;;5.53;100.00
62111;BME280;48102;47.526;19.072;2022-12-07T14:25:26;100293.75;;;5.44;100.00
62111;BME280;48102;47.526;19.072;2022-12-07T14:28:32;100291.97;;;5.15;100.00
62111;BME280;48102;47.526;19.072;2022-12-07T14:31:35;100291.69;;;4.95;100.00
62111;BME280;48102;47.526;19.072;2022-12-07T14:34:38;100295.47;;;4.83;100.00
62111;BME280;48102;47.526;19.072;2022-12-07T14:37:43;100292.38;;;4.69;100.00
62111;BME280;48102;47.526;19.072;2022-12-07T14:40:46;100299.72;;;4.55;100.00
62111;BME280;48102;47.526;19.072;2022-12-07T14:43:48;100304.34;;;4.43;100.00
62111;BME280;48102;47.526;19.072;2022-12-07T14:47:11;100302.03;;;4.33;100.00
62111;BME280;48102;47.526;19.072;2022-12-07T14:50:37;100314.31;;;4.27;100.00
62111;BME280;48102;47.526;19.072;2022-12-07T14:53:45;100313.66;;;4.19;100.00
62111;BME280;48102;47.526;19.072;2022-12-07T14:56:54;100319.09;;;4.10;100.00
62111;BME280;48102;47.526;19.072;2022-12-07T14:59:57;100314.28;;;3.92;100.00
62111;BME280;48102;47.526;19.072;2022-12-07T15:03:00;100310.28;;;3.77;100.00
62111;BME280;48102;47.526;19.072;2022-12-07T15:06:04;100323.53;;;3.68;100.00
62111;BME280;48102;47.526;19.072;2022-12-07T15:09:08;100317.69;;;3.57;100.00
62111;BME280;48102;47.526;19.072;2022-12-07T15:12:11;100317.12;;;3.41;100.00
62111;BME280;48102;47.526;19.072;2022-12-07T15:15:16;100313.97;;;3.26;100.00
62111;BME280;48102;47.526;19.072;2022-12-07T15:18:20;100321.00;;;3.21;100.00
62111;BME280;48102;47.526;19.072;2022-12-07T15:21:24;100316.72;;;3.20;100.00
62111;BME280;48102;47.526;19.072;2022-12-07T15:24:27;100315.56;;;3.32;100.00
62111;BME280;48102;47.526;19.072;2022-12-07T15:27:30;100331.44;;;3.21;100.00
62111;BME280;48102;47.526;19.072;2022-12-07T15:30:32;100332.47;;;3.13;100.00
62111;BME280;48102;47.526;19.072;2022-12-07T15:33:35;100325.03;;;2.93;100.00
62111;BME280;48102;47.526;19.072;2022-12-07T15:36:38;100332.22;;;2.80;100.00
62111;BME280;48102;47.526;19.072;2022-12-07T15:39:41;100331.56;;;2.69;100.00
62111;BME280;48102;47.526;19.072;2022-12-07T15:42:43;100328.28;;;2.58;100.00
62111;BME280;48102;47.526;19.072;2022-12-07T15:45:49;100348.31;;;2.53;100.00
62111;BME280;48102;47.526;19.072;2022-12-07T15:48:52;100342.00;;;2.66;100.00
62111;BME280;48102;47.526;19.072;2022-12-07T15:51:55;100350.72;;;2.65;100.00
62111;BME280;48102;47.526;19.072;2022-12-07T15:54:58;100349.19;;;2.51;100.00
62111;BME280;48102;47.526;19.072;2022-12-07T15:58:02;100349.25;;;2.48;100.00
62111;BME280;48102;47.526;19.072;2022-12-07T16:01:23;100350.13;;;2.46;100.00
62111;BME280;48102;47.526;19.072;2022-12-07T16:04:28;100351.88;;;2.45;100.00
62111;BME280;48102;47.526;19.072;2022-12-07T16:07:31;100355.50;;;2.38;100.00
62111;BME280;48102;47.526;19.072;2022-12-07T16:10:34;100350.47;;;2.24;100.00
62111;BME280;48102;47.526;19.072;2022-12-07T16:13:37;100351.44;;;2.20;100.00
62111;BME280;48102;47.526;19.072;2022-12-07T16:16:40;100349.81;;;2.13;100.00
62111;BME280;48102;47.526;19.072;2022-12-07T16:19:44;100355.16;;;2.04;100.00
62111;BME280;48102;47.526;19.072;2022-12-07T16:22:46;100343.75;;;2.11;100.00
62111;BME280;48102;47.526;19.072;2022-12-07T16:25:49;100346.34;;;2.13;100.00
62111;BME280;48102;47.526;19.072;2022-12-07T16:28:52;100343.75;;;2.11;100.00
62111;BME280;48102;47.526;19.072;2022-12-07T16:31:55;100353.38;;;2.08;100.00
